createdAt,value
2018-02-07T00:00:07.031Z,36.25
2018-02-07T00:02:34.630Z,27.87
2018-02-07T00:05:02.167Z,27.33
2018-02-07T00:07:29.698Z,35.67
2018-02-07T00:09:57.357Z,33.35
2018-02-07T00:12:24.927Z,33.30
2018-02-07T00:14:53.208Z,29.42
2018-02-07T00:17:20.751Z,29.02
2018-02-07T00:19:48.271Z,28.52
2018-02-07T00:22:15.795Z,38.75
2018-02-07T00:24:43.310Z,32.45
2018-02-07T00:27:10.829Z,37.67
2018-02-07T00:29:38.353Z,40.47
2018-02-07T00:32:06.658Z,41.63
2018-02-07T00:34:34.182Z,28.20
2018-02-07T00:37:02.471Z,35.28
2018-02-07T00:39:30.763Z,39.88
2018-02-07T00:41:58.307Z,32.85
2018-02-07T00:44:26.619Z,32.50
2018-02-07T00:46:54.147Z,36.00
2018-02-07T00:49:21.697Z,36.95
2018-02-07T00:51:50.109Z,38.13
2018-02-07T00:54:17.661Z,33.70
2018-02-07T00:56:45.204Z,35.53
2018-02-07T00:59:12.724Z,31.85
2018-02-07T01:01:40.249Z,29.27
2018-02-07T01:04:07.784Z,34.10
2018-02-07T01:06:35.301Z,37.97
2018-02-07T01:09:02.821Z,33.58
2018-02-07T01:11:30.336Z,35.35
2018-02-07T01:13:57.867Z,37.65
2018-02-07T01:16:25.382Z,50.38
2018-02-07T01:18:53.687Z,37.08
2018-02-07T01:21:21.224Z,30.52
2018-02-07T01:23:48.746Z,32.40
2018-02-07T01:26:16.258Z,29.98
2018-02-07T01:28:43.766Z,33.28
2018-02-07T01:31:11.279Z,33.80
2018-02-07T01:33:38.808Z,38.47
2018-02-07T01:36:07.086Z,40.22
2018-02-07T01:38:35.397Z,34.65
2018-02-07T01:41:02.960Z,34.30
2018-02-07T01:43:30.479Z,29.55
2018-02-07T01:45:58.759Z,38.42
2018-02-07T01:48:27.050Z,36.83
2018-02-07T01:50:54.635Z,35.20
2018-02-07T01:53:22.166Z,33.08
2018-02-07T01:55:50.460Z,38.67
2018-02-07T01:58:17.976Z,34.03
2018-02-07T02:00:45.502Z,38.40
2018-02-07T02:03:13.076Z,39.55
2018-02-07T02:05:40.659Z,34.65
2018-02-07T02:08:08.227Z,37.53
2018-02-07T02:10:35.745Z,49.33
2018-02-07T02:13:03.279Z,33.00
2018-02-07T02:15:30.815Z,37.67
2018-02-07T02:17:58.327Z,36.13
2018-02-07T02:20:25.859Z,41.95
2018-02-07T02:22:53.370Z,36.67
2018-02-07T02:25:20.904Z,35.45
2018-02-07T02:27:48.420Z,36.33
2018-02-07T02:30:16.702Z,31.77
2018-02-07T02:32:44.237Z,45.30
2018-02-07T02:35:11.787Z,36.67
2018-02-07T02:37:39.312Z,40.72
2018-02-07T02:40:06.862Z,38.42
2018-02-07T02:42:34.397Z,33.65
2018-02-07T02:45:01.916Z,33.35
2018-02-07T02:47:29.446Z,41.08
2018-02-07T02:49:56.990Z,38.63
2018-02-07T02:52:24.522Z,36.75
2018-02-07T02:54:52.031Z,40.05
2018-02-07T02:57:19.538Z,38.25
2018-02-07T02:59:47.828Z,42.13
2018-02-07T03:02:16.131Z,43.45
2018-02-07T03:04:43.649Z,36.97
2018-02-07T03:07:11.219Z,32.05
2018-02-07T03:09:39.485Z,39.88
2018-02-07T03:12:07.769Z,41.17
2018-02-07T03:14:36.175Z,41.30
2018-02-07T03:17:03.693Z,39.28
2018-02-07T03:19:31.208Z,46.30
2018-02-07T03:21:58.743Z,40.72
2018-02-07T03:24:26.244Z,42.33
2018-02-07T03:26:53.766Z,37.70
2018-02-07T03:29:21.322Z,42.10
2018-02-07T03:31:48.839Z,36.72
2018-02-07T03:34:16.335Z,45.90
2018-02-07T03:36:43.846Z,41.58
2018-02-07T03:39:11.375Z,41.63
2018-02-07T03:41:38.893Z,33.72
2018-02-07T03:44:07.201Z,40.38
2018-02-07T03:46:34.721Z,49.85
2018-02-07T03:49:02.247Z,45.70
2018-02-07T03:51:29.766Z,38.75
2018-02-07T03:53:57.290Z,42.28
2018-02-07T03:56:24.862Z,44.28
2018-02-07T03:58:52.424Z,41.65
2018-02-07T04:01:19.927Z,39.35
2018-02-07T04:03:47.468Z,47.88
2018-02-07T04:06:15.089Z,36.80
2018-02-07T04:08:42.617Z,38.13
2018-02-07T04:11:10.202Z,39.92
2018-02-07T04:13:37.713Z,41.45
2018-02-07T04:18:55.757Z,44.42
2018-02-07T04:21:23.283Z,47.47
2018-02-07T04:23:50.815Z,42.25
2018-02-07T04:26:18.346Z,39.22
2018-02-07T04:28:45.857Z,44.13
2018-02-07T04:31:13.386Z,36.33
2018-02-07T04:33:40.949Z,42.85
2018-02-07T04:36:08.479Z,44.20
2018-02-07T04:38:35.985Z,39.08
2018-02-07T04:41:03.509Z,36.38
2018-02-07T04:43:31.015Z,41.10
2018-02-07T04:45:59.744Z,39.80
2018-02-07T04:48:28.016Z,58.45
2018-02-07T04:50:55.535Z,43.13
2018-02-07T04:53:23.506Z,43.60
2018-02-07T04:55:51.050Z,41.92
2018-02-07T04:58:18.580Z,43.97
2018-02-07T05:00:46.178Z,49.42
2018-02-07T05:03:13.711Z,41.47
2018-02-07T05:05:41.231Z,41.22
2018-02-07T05:08:08.745Z,38.20
2018-02-07T05:10:36.319Z,40.00
2018-02-07T05:13:03.831Z,49.55
2018-02-07T05:15:31.480Z,44.83
2018-02-07T05:17:59.796Z,49.35
2018-02-07T05:20:27.328Z,40.10
2018-02-07T05:22:55.634Z,39.42
2018-02-07T05:25:23.148Z,48.67
2018-02-07T05:27:50.680Z,48.53
2018-02-07T05:30:18.237Z,40.60
2018-02-07T05:32:45.756Z,43.30
2018-02-07T05:35:13.287Z,44.47
2018-02-07T05:37:41.591Z,38.30
2018-02-07T05:40:09.123Z,38.95
2018-02-07T05:42:36.643Z,41.30
2018-02-07T05:45:04.221Z,41.20
2018-02-07T05:47:31.764Z,40.80
2018-02-07T05:49:59.308Z,43.65
2018-02-07T05:52:26.825Z,46.28
2018-02-07T05:54:54.339Z,50.92
2018-02-07T05:57:21.878Z,40.25
2018-02-07T05:59:49.399Z,43.28
2018-02-07T06:02:16.926Z,50.03
2018-02-07T06:04:44.446Z,45.42
2018-02-07T06:07:11.957Z,44.65
2018-02-07T06:09:39.473Z,47.60
2018-02-07T06:12:07.119Z,43.58
2018-02-07T06:14:34.653Z,47.47
2018-02-07T06:17:02.931Z,46.55
2018-02-07T06:19:31.263Z,46.35
2018-02-07T06:21:58.834Z,44.00
2018-02-07T06:24:26.312Z,51.05
2018-02-07T06:26:54.877Z,52.50
2018-02-07T06:29:23.436Z,41.40
2018-02-07T06:31:51.466Z,49.10
2018-02-07T06:34:19.760Z,46.25
2018-02-07T06:36:47.276Z,44.47
2018-02-07T06:39:14.793Z,58.80
2018-02-07T06:41:42.339Z,57.80
2018-02-07T06:44:09.858Z,50.85
2018-02-07T06:46:37.370Z,49.50
2018-02-07T06:49:04.912Z,42.92
2018-02-07T06:51:32.443Z,52.20
2018-02-07T06:53:59.972Z,55.63
2018-02-07T06:56:27.493Z,47.97
2018-02-07T06:58:55.773Z,49.83
2018-02-07T07:01:23.289Z,49.63
2018-02-07T07:03:50.812Z,58.80
2018-02-07T07:06:18.347Z,58.10
2018-02-07T07:08:45.884Z,53.60
2018-02-07T07:11:13.472Z,66.32
2018-02-07T07:13:41.000Z,54.97
2018-02-07T07:16:08.583Z,62.13
2018-02-07T07:18:36.117Z,48.55
2018-02-07T07:21:03.627Z,53.75
2018-02-07T07:23:31.166Z,56.22
2018-02-07T07:25:58.731Z,50.97
2018-02-07T07:28:26.267Z,50.45
2018-02-07T07:30:53.800Z,56.72
2018-02-07T07:33:21.431Z,58.17
2018-02-07T07:35:48.941Z,52.38
2018-02-07T07:38:16.516Z,55.78
2018-02-07T07:40:44.043Z,61.28
2018-02-07T07:43:11.590Z,60.38
2018-02-07T07:45:39.175Z,58.17
2018-02-07T07:48:06.693Z,60.45
2018-02-07T07:50:34.230Z,61.42
2018-02-07T07:53:01.788Z,65.57
2018-02-07T07:55:30.084Z,57.85
2018-02-07T07:57:57.647Z,73.97
2018-02-07T08:00:25.182Z,61.95
2018-02-07T08:02:53.486Z,65.20
2018-02-07T08:05:21.011Z,66.57
2018-02-07T08:07:48.557Z,68.20
2018-02-07T08:10:16.064Z,59.92
2018-02-07T08:12:43.583Z,62.88
2018-02-07T08:15:11.082Z,62.85
2018-02-07T08:17:38.595Z,65.53
2018-02-07T08:20:06.167Z,53.72
2018-02-07T08:22:33.698Z,68.07
2018-02-07T08:25:01.243Z,67.15
2018-02-07T08:27:28.786Z,74.68
2018-02-07T08:29:56.306Z,67.68
2018-02-07T08:32:24.596Z,68.10
2018-02-07T08:34:52.958Z,54.65
2018-02-07T08:37:20.599Z,63.10
2018-02-07T08:39:48.128Z,57.08
2018-02-07T08:42:15.649Z,64.57
2018-02-07T08:44:43.930Z,60.12
2018-02-07T08:47:12.232Z,63.53
2018-02-07T08:49:39.754Z,68.65
2018-02-07T08:52:07.269Z,60.97
2018-02-07T08:54:34.807Z,63.72
2018-02-07T08:57:02.367Z,68.70
2018-02-07T08:59:29.944Z,59.53
2018-02-07T09:01:57.474Z,68.62
2018-02-07T09:04:25.014Z,61.53
2018-02-07T09:06:53.322Z,60.90
2018-02-07T09:09:20.864Z,60.92
2018-02-07T09:11:48.422Z,71.78
2018-02-07T09:14:16.729Z,59.53
2018-02-07T09:16:44.247Z,73.10
2018-02-07T09:19:11.796Z,73.32
2018-02-07T09:21:39.315Z,64.25
2018-02-07T09:24:06.838Z,79.68
2018-02-07T09:26:34.370Z,66.93
2018-02-07T09:29:01.907Z,71.12
2018-02-07T09:31:29.438Z,60.45
2018-02-07T09:33:56.979Z,69.62
2018-02-07T09:36:25.262Z,67.53
2018-02-07T09:38:52.898Z,75.15
2018-02-07T09:41:20.437Z,64.35
2018-02-07T09:43:47.989Z,72.82
2018-02-07T09:46:15.803Z,74.53
2018-02-07T09:48:43.340Z,74.07
2018-02-07T09:51:10.853Z,69.15
2018-02-07T09:53:38.386Z,58.55
2018-02-07T09:56:05.938Z,81.03
2018-02-07T09:58:34.236Z,73.50
2018-02-07T10:01:01.757Z,68.10
2018-02-07T10:03:29.284Z,64.10
2018-02-07T10:05:56.807Z,80.60
2018-02-07T10:08:24.384Z,70.30
2018-02-07T10:10:51.898Z,81.63
2018-02-07T10:13:19.420Z,79.62
2018-02-07T10:15:46.933Z,72.10
2018-02-07T10:18:14.542Z,69.00
2018-02-07T10:20:42.054Z,75.70
2018-02-07T10:23:09.564Z,81.40
2018-02-07T10:25:37.164Z,80.35
2018-02-07T10:28:04.671Z,79.68
2018-02-07T10:30:32.196Z,72.93
2018-02-07T10:32:59.752Z,75.07
2018-02-07T10:35:28.039Z,73.97
2018-02-07T10:37:55.539Z,69.32
2018-02-07T10:40:23.064Z,66.72
2018-02-07T10:42:50.606Z,79.18
2018-02-07T10:45:18.149Z,63.28
2018-02-07T10:47:45.660Z,64.93
2018-02-07T10:50:13.167Z,63.63
2018-02-07T10:52:40.703Z,62.55
2018-02-07T10:55:08.216Z,67.65
2018-02-07T10:57:35.759Z,66.20
2018-02-07T11:00:03.283Z,66.75
2018-02-07T11:02:30.810Z,64.90
2018-02-07T11:04:58.334Z,70.97
2018-02-07T11:07:25.975Z,64.50
2018-02-07T11:09:53.561Z,66.00
2018-02-07T11:12:21.072Z,69.87
2018-02-07T11:14:48.615Z,65.30
2018-02-07T11:17:16.125Z,64.12
2018-02-07T11:19:43.635Z,66.90
2018-02-07T11:22:11.149Z,62.35
2018-02-07T11:24:38.675Z,66.32
2018-02-07T11:27:06.200Z,70.22
2018-02-07T11:29:33.714Z,56.53
2018-02-07T11:32:01.228Z,65.43
2018-02-07T11:34:28.790Z,63.45
2018-02-07T11:36:56.309Z,74.62
2018-02-07T11:39:24.675Z,63.70
2018-02-07T11:41:52.190Z,66.05
2018-02-07T11:44:19.713Z,62.15
2018-02-07T11:46:47.233Z,60.22
2018-02-07T11:49:14.761Z,64.95
2018-02-07T11:51:42.285Z,62.88
2018-02-07T11:54:09.821Z,68.97
2018-02-07T11:56:37.374Z,66.40
2018-02-07T11:59:04.893Z,57.42
2018-02-07T12:01:32.485Z,66.65
2018-02-07T12:04:00.036Z,68.35
2018-02-07T12:06:27.567Z,65.45
2018-02-07T12:08:55.078Z,60.95
2018-02-07T12:11:22.613Z,68.70
2018-02-07T12:13:50.111Z,63.95
2018-02-07T12:16:18.393Z,63.87
2018-02-07T12:18:46.690Z,63.03
2018-02-07T12:21:14.204Z,68.07
2018-02-07T12:23:41.723Z,62.85
2018-02-07T12:26:09.278Z,63.35
2018-02-07T12:28:36.803Z,53.70
2018-02-07T12:31:04.353Z,51.00
2018-02-07T12:33:31.864Z,62.85
2018-02-07T12:35:59.366Z,57.58
2018-02-07T12:38:26.894Z,57.30
2018-02-07T12:40:54.429Z,60.85
2018-02-07T12:43:21.939Z,61.72
2018-02-07T12:45:49.442Z,62.15
2018-02-07T12:48:16.979Z,56.15
2018-02-07T12:50:44.485Z,55.70
2018-02-07T12:53:12.779Z,62.67
2018-02-07T12:55:40.339Z,56.13
2018-02-07T12:58:07.854Z,49.88
2018-02-07T13:00:35.373Z,44.65
2018-02-07T13:03:03.599Z,51.15
2018-02-07T13:05:31.123Z,56.55
2018-02-07T13:07:58.654Z,50.90
2018-02-07T13:10:26.174Z,55.17
2018-02-07T13:12:53.738Z,48.85
2018-02-07T13:15:21.238Z,53.03
2018-02-07T13:17:48.767Z,46.88
2018-02-07T13:20:16.291Z,48.03
2018-02-07T13:22:43.877Z,44.08
2018-02-07T13:25:11.389Z,47.65
2018-02-07T13:27:38.897Z,45.28
2018-02-07T13:30:06.455Z,44.95
2018-02-07T13:32:33.984Z,50.97
2018-02-07T13:35:01.524Z,50.20
2018-02-07T13:37:29.044Z,49.40
2018-02-07T13:39:56.562Z,53.87
2018-02-07T13:42:24.089Z,48.47
2018-02-07T13:44:51.628Z,51.00
2018-02-07T13:47:19.148Z,50.12
2018-02-07T13:49:46.748Z,51.20
2018-02-07T13:52:14.988Z,52.75
2018-02-07T13:54:43.289Z,52.47
2018-02-07T13:57:10.808Z,46.78
2018-02-07T13:59:38.403Z,47.28
2018-02-07T14:02:06.009Z,49.67
2018-02-07T14:04:33.519Z,47.92
2018-02-07T14:07:01.116Z,40.75
2018-02-07T14:09:28.969Z,51.72
2018-02-07T14:11:56.546Z,56.00
2018-02-07T14:14:24.067Z,53.58
2018-02-07T14:16:51.583Z,56.35
2018-02-07T14:19:19.117Z,50.03
2018-02-07T14:21:49.158Z,48.83
2018-02-07T14:24:17.567Z,45.03
2018-02-07T14:26:47.606Z,55.00
2018-02-07T14:29:15.109Z,49.22
2018-02-07T14:31:43.800Z,53.47
2018-02-07T14:34:11.389Z,49.42
2018-02-07T14:36:40.516Z,45.12
2018-02-07T14:39:08.031Z,49.15
2018-02-07T14:41:35.755Z,57.22
2018-02-07T14:44:03.631Z,43.55
2018-02-07T14:46:31.257Z,39.70
2018-02-07T14:48:58.759Z,37.83
2018-02-07T14:51:26.419Z,37.10
2018-02-07T14:53:53.926Z,37.85
2018-02-07T14:56:22.271Z,34.72
2018-02-07T14:58:49.767Z,31.40
2018-02-07T15:01:17.288Z,33.83
2018-02-07T15:03:44.805Z,27.87
2018-02-07T15:06:12.761Z,29.58
2018-02-07T15:08:40.291Z,32.75
2018-02-07T15:11:07.790Z,23.48
2018-02-07T15:13:35.392Z,34.05
2018-02-07T15:16:02.926Z,30.42
2018-02-07T15:18:30.430Z,28.50
2018-02-07T15:20:57.939Z,23.30
2018-02-07T15:23:25.473Z,29.17
2018-02-07T15:25:52.999Z,27.05
2018-02-07T15:28:20.613Z,26.70
2018-02-07T15:30:48.140Z,31.08
2018-02-07T15:33:16.473Z,35.70
2018-02-07T15:35:44.066Z,26.25
2018-02-07T15:38:11.864Z,30.62
2018-02-07T15:40:39.398Z,29.67
2018-02-07T15:43:06.911Z,36.80
2018-02-07T15:45:34.622Z,29.92
2018-02-07T15:48:02.942Z,34.72
2018-02-07T15:50:30.548Z,35.83
2018-02-07T15:52:58.041Z,29.40
2018-02-07T15:55:25.557Z,36.42
2018-02-07T15:57:53.078Z,41.25
2018-02-07T16:00:20.601Z,32.15
2018-02-07T16:02:48.884Z,32.60
2018-02-07T16:05:17.172Z,35.15
2018-02-07T16:07:44.718Z,35.28
2018-02-07T16:10:13.026Z,34.17
2018-02-07T16:12:40.562Z,34.13
2018-02-07T16:15:08.874Z,33.40
2018-02-07T16:17:36.384Z,31.35
2018-02-07T16:20:03.915Z,33.40
2018-02-07T16:22:31.543Z,37.95
2018-02-07T16:24:59.068Z,35.95
2018-02-07T16:27:27.352Z,34.42
2018-02-07T16:29:55.637Z,32.33
2018-02-07T16:32:24.508Z,30.50
2018-02-07T16:34:52.024Z,29.45
2018-02-07T16:37:19.568Z,28.65
2018-02-07T16:39:47.102Z,36.78
2018-02-07T16:42:15.403Z,32.13
2018-02-07T16:44:42.962Z,36.05
2018-02-07T16:47:10.468Z,26.85
2018-02-07T16:49:37.975Z,28.52
2018-02-07T16:52:05.490Z,30.55
2018-02-07T16:54:33.012Z,32.28
2018-02-07T16:57:00.559Z,37.08
2018-02-07T16:59:28.100Z,40.17
2018-02-07T17:01:55.620Z,35.92
2018-02-07T17:04:23.147Z,31.58
2018-02-07T17:06:50.666Z,40.15
2018-02-07T17:09:18.184Z,32.10
2018-02-07T17:11:45.692Z,40.85
2018-02-07T17:14:14.084Z,37.75
2018-02-07T17:16:41.637Z,38.20
2018-02-07T17:19:09.946Z,37.92
2018-02-07T17:21:37.499Z,38.72
2018-02-07T17:24:05.002Z,45.78
2018-02-07T17:26:32.623Z,34.55
2018-02-07T17:29:00.186Z,41.35
2018-02-07T17:31:27.718Z,38.35
2018-02-07T17:33:55.267Z,45.05
2018-02-07T17:36:23.692Z,42.17
2018-02-07T17:38:51.216Z,48.85
2018-02-07T17:41:19.489Z,48.15
2018-02-07T17:43:47.798Z,46.10
2018-02-07T17:46:15.317Z,44.88
2018-02-07T17:48:50.905Z,54.55
2018-02-07T17:51:18.414Z,47.33
2018-02-07T17:53:46.750Z,45.70
2018-02-07T17:56:15.013Z,51.70
2018-02-07T17:58:42.663Z,48.92
2018-02-07T18:01:10.601Z,47.90
2018-02-07T18:03:38.252Z,50.15
2018-02-07T18:06:05.774Z,46.42
2018-02-07T18:08:33.334Z,48.38
2018-02-07T18:11:03.152Z,52.97
2018-02-07T18:13:31.068Z,53.20
2018-02-07T18:15:58.790Z,50.50
2018-02-07T18:18:26.323Z,52.35
2018-02-07T18:20:54.003Z,52.65
2018-02-07T18:23:21.523Z,52.28
2018-02-07T18:25:49.152Z,50.10
2018-02-07T18:28:17.015Z,52.60
2018-02-07T18:30:44.804Z,51.25
2018-02-07T18:33:12.572Z,62.65
2018-02-07T18:35:40.228Z,61.25
2018-02-07T18:38:07.854Z,67.75
2018-02-07T18:40:41.451Z,74.85
2018-02-07T18:43:09.173Z,66.55
2018-02-07T18:45:38.813Z,59.25
2018-02-07T18:48:08.896Z,63.08
2018-02-07T18:50:37.554Z,62.33
2018-02-07T18:53:05.170Z,70.82
2018-02-07T18:55:32.687Z,71.82
2018-02-07T18:58:00.234Z,82.50
2018-02-07T19:00:27.896Z,66.45
2018-02-07T19:02:55.444Z,67.72
2018-02-07T19:05:22.998Z,65.95
2018-02-07T19:07:50.531Z,69.00
2018-02-07T19:10:19.813Z,69.07
2018-02-07T19:12:48.116Z,66.65
2018-02-07T19:15:15.651Z,62.33
2018-02-07T19:17:43.986Z,83.47
2018-02-07T19:20:11.692Z,78.87
2018-02-07T19:22:39.272Z,76.68
2018-02-07T19:25:06.827Z,70.22
2018-02-07T19:27:34.355Z,76.50
2018-02-07T19:30:01.909Z,63.58
2018-02-07T19:32:29.432Z,65.28
2018-02-07T19:34:56.984Z,64.50
2018-02-07T19:37:24.587Z,70.28
2018-02-07T19:39:52.244Z,70.25
2018-02-07T19:42:20.633Z,66.25
2018-02-07T19:44:48.286Z,67.80
2018-02-07T19:47:15.855Z,72.50
2018-02-07T19:49:43.399Z,73.45
2018-02-07T19:52:10.921Z,65.82
2018-02-07T19:54:38.459Z,70.72
2018-02-07T19:57:06.764Z,64.22
2018-02-07T19:59:34.320Z,68.55
2018-02-07T20:02:01.880Z,89.00
2018-02-07T20:04:29.487Z,66.10
2018-02-07T20:06:57.026Z,69.75
2018-02-07T20:09:24.623Z,64.57
2018-02-07T20:11:52.938Z,75.43
2018-02-07T20:14:20.511Z,70.55
2018-02-07T20:16:48.036Z,73.40
2018-02-07T20:19:16.350Z,77.78
2018-02-07T20:21:43.879Z,76.28
2018-02-07T20:24:11.436Z,101.10
2018-02-07T20:26:38.978Z,82.82
2018-02-07T20:29:06.654Z,82.80
2018-02-07T20:31:34.193Z,89.75
2018-02-07T20:34:01.730Z,84.32
2018-02-07T20:36:29.288Z,80.43
2018-02-07T20:38:56.818Z,72.35
2018-02-07T20:41:24.363Z,80.25
2018-02-07T20:43:51.902Z,87.40
2018-02-07T20:46:20.254Z,69.05
2018-02-07T20:48:47.830Z,85.03
2018-02-07T20:51:15.362Z,84.65
2018-02-07T20:53:43.052Z,87.65
2018-02-07T20:56:10.655Z,84.55
2018-02-07T20:58:39.222Z,86.20
2018-02-07T21:01:07.775Z,73.47
2018-02-07T21:03:36.226Z,79.22
2018-02-07T21:06:03.862Z,84.97
2018-02-07T21:08:31.428Z,92.45
2018-02-07T21:10:58.956Z,97.47
2018-02-07T21:13:27.285Z,81.30
2018-02-07T21:15:54.921Z,87.15
2018-02-07T21:18:23.214Z,83.90
2018-02-07T21:20:50.768Z,79.28
2018-02-07T21:23:18.338Z,80.78
2018-02-07T21:25:45.982Z,82.50
2018-02-07T21:28:13.496Z,83.65
2018-02-07T21:30:41.083Z,82.43
2018-02-07T21:33:08.712Z,89.75
2018-02-07T21:35:36.567Z,75.68
2018-02-07T21:38:04.114Z,77.03
2018-02-07T21:40:31.676Z,86.90
2018-02-07T21:42:59.255Z,90.47
2018-02-07T21:45:26.795Z,78.30
2018-02-07T21:47:55.494Z,94.07
2018-02-07T21:50:23.037Z,80.72
2018-02-07T21:52:50.567Z,97.35
2018-02-07T21:55:18.256Z,81.05
2018-02-07T21:57:45.828Z,82.70
2018-02-07T22:00:13.366Z,80.62
2018-02-07T22:02:40.920Z,94.28
2018-02-07T22:05:08.652Z,85.25
2018-02-07T22:07:37.030Z,84.03
2018-02-07T22:10:04.983Z,94.82
2018-02-07T22:12:32.592Z,105.32
2018-02-07T22:15:01.055Z,95.50
2018-02-07T22:17:28.614Z,83.85
2018-02-07T22:19:56.904Z,88.40
2018-02-07T22:22:25.203Z,95.70
2018-02-07T22:24:52.743Z,90.87
2018-02-07T22:27:20.261Z,119.50
2018-02-07T22:29:47.782Z,87.62
2018-02-07T22:32:15.375Z,100.32
2018-02-07T22:34:43.229Z,91.15
2018-02-07T22:37:10.788Z,97.95
2018-02-07T22:39:38.334Z,91.95
2018-02-07T22:42:05.901Z,91.90
2018-02-07T22:44:33.462Z,92.47
2018-02-07T22:47:01.175Z,93.12
2018-02-07T22:49:29.628Z,100.80
2018-02-07T22:51:58.044Z,86.90
2018-02-07T22:54:27.536Z,102.72
2018-02-07T22:56:55.879Z,91.25
2018-02-07T22:59:23.416Z,88.75
2018-02-07T23:01:50.996Z,100.28
2018-02-07T23:04:19.357Z,90.47
2018-02-07T23:06:47.046Z,110.07
2018-02-07T23:09:14.660Z,92.12
2018-02-07T23:11:42.246Z,82.72
2018-02-07T23:14:09.774Z,85.57
2018-02-07T23:16:38.125Z,95.70
2018-02-07T23:19:05.679Z,90.18
2018-02-07T23:21:34.350Z,96.32
2018-02-07T23:24:01.906Z,91.60
2018-02-07T23:26:29.911Z,86.55
2018-02-07T23:28:57.562Z,96.75
2018-02-07T23:31:25.918Z,89.37
2018-02-07T23:33:53.563Z,86.72
2018-02-07T23:36:21.156Z,93.65
2018-02-07T23:38:48.685Z,103.82
2018-02-07T23:41:16.242Z,84.72
2018-02-07T23:43:43.769Z,75.45
2018-02-07T23:46:12.071Z,92.10
2018-02-07T23:48:39.645Z,79.72
2018-02-07T23:51:07.201Z,97.78
2018-02-07T23:53:34.813Z,98.20
2018-02-07T23:56:02.378Z,87.10
2018-02-07T23:58:29.953Z,86.85
